Terminal Aerodrome Forecast
Issued by NWS

Home | Current Version | Previous Version | Graphics & Text | Print | Product List | Glossary On
Versions: 1 2 3 4 5 6 7 8 9 10 11 12 13 14 15 16
000
FTUS43 KGRB 041326 AAA
TAFRHI
TAF AMD
KRHI 041326Z 0413/0512 17004KT 2SM -SN OVC017
     FM041500 16006KT 2SM -SN OVC007
     FM041600 16007KT 1SM -SN OVC007
     FM042300 21006KT 3SM -SN OVC007
     FM050400 25006KT P6SM OVC010
     FM050900 25005KT P6SM BKN007=

USA.gov is the U.S. government's official web portal to all federal, state and local government web resources and services.